Time;durP1;ratioP1;P1;durP2;ratioP2;P2;SDS_P1;SDS_P2;PMS_P1;PMS_P2;Temp;Humidity;BMP_temperature;BMP_pressure;BME280_temperature;BME280_humidity;BME280_pressure;Samples;Min_cycle;Max_cycle;Signal;HPM_P1;HPM_P2
2022/07/08 00:01:51;;;;;;;4.10;2.45;;;17.30;99.90;;;;;;4178425;28;20378;-64
2022/07/08 00:03:52;;;;;;;6.95;1.98;;;17.30;99.90;;;;;;4176885;28;20834;-67
2022/07/08 00:05:53;;;;;;;2.28;1.88;;;17.30;99.90;;;;;;4176870;28;20032;-64
2022/07/08 00:07:55;;;;;;;1.90;1.70;;;17.30;99.90;;;;;;4176169;28;20049;-66
2022/07/08 00:09:56;;;;;;;3.88;1.98;;;17.30;99.90;;;;;;4176806;28;20098;-63
2022/07/08 00:11:57;;;;;;;1.75;1.65;;;17.30;99.90;;;;;;4192388;28;20049;-67
2022/07/08 00:13:58;;;;;;;1.95;1.83;;;17.20;99.90;;;;;;4193722;28;20020;-66
2022/07/08 00:15:59;;;;;;;1.90;1.40;;;17.20;99.90;;;;;;4193003;28;20024;-65
2022/07/08 00:18:00;;;;;;;3.72;2.08;;;17.20;99.90;;;;;;4179158;28;20053;-63
2022/07/08 00:20:03;;;;;;;3.10;1.70;;;17.20;99.90;;;;;;4176199;28;20555;-66
2022/07/08 00:22:04;;;;;;;4.15;1.75;;;17.20;99.90;;;;;;4176821;28;20037;-65
2022/07/08 00:24:05;;;;;;;2.97;1.95;;;17.20;99.90;;;;;;4176440;28;20045;-64
2022/07/08 00:26:07;;;;;;;1.92;1.65;;;17.10;99.90;;;;;;4176866;28;20146;-65
2022/07/08 00:28:08;;;;;;;3.30;1.80;;;17.20;99.90;;;;;;4176525;28;20028;-64
2022/07/08 00:30:09;;;;;;;4.45;2.08;;;17.10;99.90;;;;;;4189553;28;20557;-66
2022/07/08 00:32:11;;;;;;;2.28;1.80;;;17.00;99.90;;;;;;4191367;28;20037;-66
2022/07/08 00:34:12;;;;;;;3.30;2.00;;;17.00;99.90;;;;;;4192942;28;20036;-68
2022/07/08 00:36:13;;;;;;;3.88;1.90;;;17.10;99.90;;;;;;4192774;28;20037;-64
2022/07/08 00:38:14;;;;;;;3.70;1.83;;;17.10;99.90;;;;;;4191937;28;20408;-66
2022/07/08 00:40:15;;;;;;;3.90;1.63;;;17.10;99.90;;;;;;4191149;28;20048;-67
2022/07/08 00:42:16;;;;;;;4.28;2.03;;;17.10;99.90;;;;;;4192905;28;20062;-64
2022/07/08 00:44:17;;;;;;;2.10;1.90;;;17.10;99.90;;;;;;4193537;28;20032;-64
2022/07/08 00:46:19;;;;;;;3.33;1.95;;;17.10;99.90;;;;;;4192669;28;20036;-65
2022/07/08 00:48:20;;;;;;;2.92;1.77;;;17.10;99.90;;;;;;4193396;28;20041;-65
2022/07/08 00:50:22;;;;;;;1.90;1.67;;;17.10;99.90;;;;;;4192681;28;20098;-64
2022/07/08 00:52:24;;;;;;;2.83;1.75;;;17.10;99.90;;;;;;4190373;28;20033;-65
2022/07/08 00:54:26;;;;;;;5.85;1.92;;;17.10;99.90;;;;;;4176084;28;20469;-62
2022/07/08 00:56:28;;;;;;;2.20;1.83;;;17.10;99.90;;;;;;4178536;28;20060;-64
2022/07/08 00:58:31;;;;;;;2.10;1.70;;;17.10;99.90;;;;;;4192824;28;20446;-64
2022/07/08 01:00:32;;;;;;;3.55;2.08;;;17.00;99.90;;;;;;4193150;28;20062;-66
2022/07/08 01:02:33;;;;;;;3.08;2.33;;;17.00;99.90;;;;;;4192508;28;20041;-64
2022/07/08 01:04:35;;;;;;;1.90;1.80;;;17.00;99.90;;;;;;4192893;28;20464;-64
2022/07/08 01:06:36;;;;;;;2.33;1.85;;;17.00;99.90;;;;;;4192951;28;20102;-65
2022/07/08 01:08:37;;;;;;;2.30;2.08;;;17.00;99.90;;;;;;4192855;28;20078;-64
2022/07/08 01:10:39;;;;;;;2.70;1.83;;;16.90;99.90;;;;;;4192724;28;20074;-65
2022/07/08 01:12:40;;;;;;;2.15;1.95;;;16.90;99.90;;;;;;4191022;28;20036;-65
2022/07/08 01:14:42;;;;;;;3.42;1.80;;;16.80;99.90;;;;;;4193022;28;20028;-66
2022/07/08 01:16:43;;;;;;;2.28;1.88;;;16.90;99.90;;;;;;4187772;28;20037;-64
2022/07/08 01:18:45;;;;;;;2.08;1.92;;;16.90;99.90;;;;;;4178902;28;20063;-63
2022/07/08 01:20:46;;;;;;;2.08;1.50;;;16.90;99.90;;;;;;4178767;28;20053;-64
2022/07/08 01:22:47;;;;;;;2.00;1.67;;;16.80;99.90;;;;;;4179765;28;20033;-64
2022/07/08 01:24:48;;;;;;;3.30;1.83;;;16.80;99.90;;;;;;4178895;28;20045;-64
2022/07/08 01:26:50;;;;;;;4.10;1.90;;;16.80;99.90;;;;;;4180698;28;20435;-64
2022/07/08 01:28:51;;;;;;;3.08;1.65;;;16.80;99.90;;;;;;4179190;28;20056;-65
2022/07/08 01:30:52;;;;;;;2.47;1.55;;;16.80;99.90;;;;;;4180444;28;20116;-65
2022/07/08 01:32:53;;;;;;;2.95;1.58;;;16.80;99.90;;;;;;4178121;28;20045;-67
2022/07/08 01:34:55;;;;;;;3.97;2.00;;;16.80;99.90;;;;;;4178520;28;20463;-64
2022/07/08 01:36:56;;;;;;;1.90;1.73;;;16.80;99.90;;;;;;4178031;28;20040;-67
2022/07/08 01:38:57;;;;;;;1.80;1.70;;;16.80;99.90;;;;;;4178931;28;20044;-64
2022/07/08 01:40:59;;;;;;;1.88;1.60;;;16.80;99.90;;;;;;4178840;28;20045;-64
2022/07/08 01:43:00;;;;;;;1.73;1.52;;;16.70;99.90;;;;;;4179020;28;20033;-63
2022/07/08 01:45:01;;;;;;;1.88;1.77;;;16.70;99.90;;;;;;4179416;28;20033;-64
2022/07/08 01:47:03;;;;;;;2.58;1.83;;;16.70;99.90;;;;;;4184895;28;20040;-64
2022/07/08 01:49:05;;;;;;;3.85;1.80;;;16.70;99.90;;;;;;4196034;28;20024;-67
2022/07/08 01:51:06;;;;;;;2.15;1.85;;;16.60;99.90;;;;;;4195261;28;20489;-66
2022/07/08 01:53:08;;;;;;;2.10;2.00;;;16.70;99.90;;;;;;4196068;28;20489;-68
2022/07/08 01:55:09;;;;;;;1.65;1.55;;;16.60;99.90;;;;;;4194986;28;20472;-66
2022/07/08 01:57:18;;;;;;;1.83;1.60;;;16.60;99.90;;;;;;4195440;28;20048;-64
2022/07/08 01:59:19;;;;;;;5.07;1.92;;;16.50;99.90;;;;;;4195057;28;20055;-66
2022/07/08 02:01:20;;;;;;;2.60;1.83;;;16.50;99.90;;;;;;4191553;28;20551;-64
2022/07/08 02:03:22;;;;;;;4.28;1.75;;;16.50;99.90;;;;;;4178670;28;20037;-67
2022/07/08 02:05:23;;;;;;;1.67;1.58;;;16.50;99.90;;;;;;4179280;28;20493;-68
2022/07/08 02:07:24;;;;;;;2.88;1.75;;;16.50;99.90;;;;;;4182389;28;20033;-66
2022/07/08 02:09:25;;;;;;;3.47;2.05;;;16.50;99.90;;;;;;4178761;28;20550;-62
2022/07/08 02:13:46;;;;;;;2.95;2.28;;;16.40;99.90;;;;;;4179104;28;20536;-63
2022/07/08 02:15:47;;;;;;;4.35;2.15;;;16.40;99.90;;;;;;4178645;28;20037;-67
2022/07/08 02:17:48;;;;;;;9.15;1.90;;;16.40;99.90;;;;;;4178497;28;20578;-64
2022/07/08 02:19:51;;;;;;;3.00;2.80;;;16.40;99.90;;;;;;4178673;28;20025;-64
2022/07/08 02:21:52;;;;;;;3.97;2.40;;;16.30;99.90;;;;;;4178108;28;20091;-64
2022/07/08 02:23:53;;;;;;;2.75;2.22;;;16.30;99.90;;;;;;4178650;28;20037;-65
2022/07/08 02:25:55;;;;;;;3.42;2.30;;;16.20;99.90;;;;;;4177990;28;20045;-66
2022/07/08 02:27:56;;;;;;;4.57;2.55;;;16.20;99.90;;;;;;4179704;28;20491;-65
2022/07/08 02:29:57;;;;;;;5.45;2.38;;;16.20;99.90;;;;;;4178829;28;20100;-65
2022/07/08 02:31:59;;;;;;;5.72;2.30;;;16.10;99.90;;;;;;4195500;28;20037;-66
2022/07/08 02:34:01;;;;;;;6.38;2.65;;;16.10;99.90;;;;;;4194071;28;20091;-64
2022/07/08 02:36:02;;;;;;;5.07;3.03;;;16.00;99.90;;;;;;4195556;28;20028;-65
2022/07/08 02:38:03;;;;;;;3.65;2.13;;;16.00;99.90;;;;;;4178052;28;20079;-64
2022/07/08 02:40:05;;;;;;;6.03;2.28;;;15.90;99.90;;;;;;4181590;28;20074;-62
2022/07/08 02:42:06;;;;;;;4.60;2.65;;;15.90;99.90;;;;;;4194227;28;20033;-62
2022/07/08 02:44:07;;;;;;;2.67;2.13;;;15.90;99.90;;;;;;4194682;28;20492;-63
2022/07/08 02:46:08;;;;;;;6.20;2.20;;;15.90;99.90;;;;;;4194720;28;20046;-63
2022/07/08 02:48:09;;;;;;;3.67;2.55;;;15.90;99.90;;;;;;4194617;28;20021;-64
2022/07/08 02:50:11;;;;;;;3.78;2.63;;;15.90;99.90;;;;;;4190053;28;20021;-66
2022/07/08 02:52:12;;;;;;;7.95;2.63;;;15.90;99.90;;;;;;4176359;28;20048;-66
2022/07/08 02:54:13;;;;;;;6.25;2.30;;;15.90;99.90;;;;;;4177797;28;20107;-64
2022/07/08 02:56:14;;;;;;;3.90;2.55;;;15.80;99.90;;;;;;4177382;28;20045;-66
2022/07/08 02:58:15;;;;;;;10.20;2.60;;;15.80;99.90;;;;;;4178360;28;20029;-64
2022/07/08 03:00:16;;;;;;;7.75;2.45;;;15.80;99.90;;;;;;4178636;28;20029;-64
2022/07/08 03:02:17;;;;;;;4.18;2.10;;;15.80;99.90;;;;;;4194904;28;20456;-65
2022/07/08 03:04:18;;;;;;;4.10;2.20;;;15.90;99.90;;;;;;4193677;28;20089;-65
2022/07/08 03:06:20;;;;;;;2.22;2.00;;;15.80;99.90;;;;;;4195269;28;20029;-68
2022/07/08 03:08:22;;;;;;;5.15;2.50;;;15.80;99.90;;;;;;4193833;28;20032;-69
2022/07/08 03:10:23;;;;;;;5.40;2.58;;;15.80;99.90;;;;;;4187611;28;20041;-63
2022/07/08 03:12:25;;;;;;;4.38;2.47;;;16.00;99.90;;;;;;4177087;28;20110;-68
2022/07/08 03:14:26;;;;;;;3.15;2.30;;;16.10;99.90;;;;;;4177696;28;20105;-67
2022/07/08 03:16:27;;;;;;;9.77;3.45;;;16.50;99.90;;;;;;4177541;28;20087;-66
2022/07/08 03:18:29;;;;;;;3.47;2.20;;;16.80;99.90;;;;;;4177600;28;20981;-65
2022/07/08 03:20:30;;;;;;;5.93;2.53;;;17.20;99.90;;;;;;4177337;28;20447;-64
2022/07/08 03:22:31;;;;;;;3.60;2.33;;;17.50;99.90;;;;;;4177563;28;20087;-68
2022/07/08 03:24:32;;;;;;;4.63;2.65;;;17.80;99.90;;;;;;4178103;28;20527;-65
2022/07/08 03:26:34;;;;;;;4.35;2.53;;;18.20;99.90;;;;;;4193805;28;20034;-64
2022/07/08 03:28:35;;;;;;;4.32;2.42;;;18.40;99.90;;;;;;4193857;28;20550;-62
2022/07/08 03:30:36;;;;;;;6.93;2.47;;;18.70;99.90;;;;;;4187319;28;20028;-64
2022/07/08 03:32:37;;;;;;;2.92;2.10;;;18.90;99.90;;;;;;4178372;28;20037;-63
2022/07/08 03:34:38;;;;;;;2.25;2.00;;;19.10;99.90;;;;;;4187318;28;20048;-64
2022/07/08 03:36:39;;;;;;;2.53;2.33;;;19.40;99.90;;;;;;4178101;28;20045;-66
2022/07/08 03:38:40;;;;;;;6.85;2.03;;;19.60;99.90;;;;;;4176949;28;20013;-66
2022/07/08 03:43:01;;;;;;;7.57;2.10;;;20.30;99.90;;;;;;4176932;28;20029;-65
2022/07/08 03:45:03;;;;;;;5.47;2.10;;;20.60;99.90;;;;;;4179962;28;20033;-63
2022/07/08 03:47:04;;;;;;;4.90;2.25;;;20.80;99.90;;;;;;4191412;28;20067;-63
2022/07/08 03:49:05;;;;;;;4.38;2.05;;;21.20;99.90;;;;;;4191560;28;20032;-63
2022/07/08 03:51:06;;;;;;;6.68;2.10;;;21.50;99.90;;;;;;4184468;28;20074;-62
2022/07/08 03:53:07;;;;;;;3.63;2.08;;;21.90;99.90;;;;;;4177044;28;20485;-64
2022/07/08 03:55:09;;;;;;;8.50;3.03;;;22.10;99.90;;;;;;4180943;28;20055;-64
2022/07/08 03:57:10;;;;;;;2.67;1.98;;;22.30;99.90;;;;;;4179901;28;20057;-63
2022/07/08 03:59:11;;;;;;;3.20;1.52;;;22.50;99.90;;;;;;4178045;28;20036;-63
2022/07/08 04:01:12;;;;;;;4.80;2.35;;;22.70;99.90;;;;;;4178206;28;20091;-62
2022/07/08 04:03:13;;;;;;;3.13;1.80;;;22.60;99.90;;;;;;4177108;28;20025;-63
2022/07/08 04:05:14;;;;;;;6.90;1.65;;;22.90;99.90;;;;;;4176008;28;20409;-63
2022/07/08 04:07:16;;;;;;;2.67;1.92;;;22.80;99.90;;;;;;4177507;28;20025;-64
2022/07/08 04:09:17;;;;;;;5.00;1.90;;;22.90;99.90;;;;;;4176293;28;20025;-66
2022/07/08 04:11:18;;;;;;;7.95;1.92;;;23.30;99.90;;;;;;4175982;28;20021;-65
2022/07/08 04:13:19;;;;;;;4.35;1.95;;;23.50;99.90;;;;;;4174249;28;20075;-65
2022/07/08 04:15:20;;;;;;;3.83;1.80;;;23.80;99.90;;;;;;4177020;28;20079;-67
2022/07/08 04:17:21;;;;;;;3.03;2.00;;;23.90;99.70;;;;;;4175977;28;20158;-63
2022/07/08 04:19:23;;;;;;;6.13;2.80;;;24.30;99.20;;;;;;4176315;28;20045;-63
2022/07/08 04:21:24;;;;;;;3.75;1.90;;;24.70;98.70;;;;;;4175854;28;20440;-65
2022/07/08 04:23:25;;;;;;;3.47;2.05;;;25.30;98.00;;;;;;4175723;28;20029;-64
2022/07/08 04:25:26;;;;;;;3.63;1.70;;;25.70;97.20;;;;;;4176548;28;20044;-63
2022/07/08 04:27:28;;;;;;;4.80;1.80;;;26.10;96.50;;;;;;4176817;28;20138;-64
2022/07/08 04:29:29;;;;;;;2.60;1.63;;;26.40;95.90;;;;;;4176330;28;20095;-67
2022/07/08 04:31:30;;;;;;;5.90;1.70;;;26.60;95.10;;;;;;4186218;28;20477;-64
2022/07/08 04:33:31;;;;;;;3.05;1.67;;;26.90;94.70;;;;;;4183247;28;20495;-66
2022/07/08 04:35:32;;;;;;;1.75;1.40;;;27.10;93.90;;;;;;4181589;28;20049;-65
2022/07/08 04:37:33;;;;;;;5.55;1.83;;;26.90;93.50;;;;;;4192443;28;20036;-64
2022/07/08 04:39:35;;;;;;;2.97;1.75;;;27.00;93.00;;;;;;4159325;28;20145;-64
2022/07/08 04:41:37;;;;;;;4.35;2.17;;;27.20;92.60;;;;;;4158350;28;20091;-69
2022/07/08 04:43:38;;;;;;;4.68;1.73;;;27.40;92.30;;;;;;4158849;28;20033;-67
2022/07/08 04:45:39;;;;;;;6.53;2.05;;;27.80;91.70;;;;;;4160104;28;20064;-65
2022/07/08 04:47:41;;;;;;;3.80;1.65;;;28.10;91.10;;;;;;4159632;28;20088;-67
2022/07/08 04:49:42;;;;;;;2.42;1.25;;;28.30;90.40;;;;;;4159847;28;20956;-64
2022/07/08 04:51:43;;;;;;;3.20;1.40;;;28.40;89.60;;;;;;4159593;28;20021;-64
2022/07/08 04:53:44;;;;;;;2.00;1.25;;;28.50;88.10;;;;;;4161917;28;20029;-64
2022/07/08 04:55:45;;;;;;;2.95;1.10;;;28.50;87.30;;;;;;4162722;28;20443;-67
2022/07/08 04:57:47;;;;;;;5.45;2.00;;;28.80;86.60;;;;;;4163162;28;20432;-65
2022/07/08 04:59:49;;;;;;;2.75;1.60;;;29.00;85.80;;;;;;4162815;28;20543;-65
2022/07/08 05:01:50;;;;;;;4.18;2.00;;;29.20;84.90;;;;;;4162639;28;20045;-64
2022/07/08 05:03:51;;;;;;;7.35;2.15;;;29.20;84.10;;;;;;4163123;28;20033;-64
2022/07/08 05:05:52;;;;;;;9.35;3.05;;;29.10;83.60;;;;;;4162603;28;20036;-69
2022/07/08 05:07:54;;;;;;;3.97;2.22;;;29.00;83.20;;;;;;4163484;28;20029;-67
2022/07/08 05:09:55;;;;;;;5.93;3.13;;;28.90;83.00;;;;;;4162485;28;20084;-65
2022/07/08 05:11:56;;;;;;;8.43;2.85;;;28.50;82.50;;;;;;4163058;28;20764;-67
2022/07/08 05:13:57;;;;;;;8.18;4.13;;;28.10;82.80;;;;;;4162349;28;20021;-68
2022/07/08 05:15:58;;;;;;;5.05;2.50;;;27.70;83.40;;;;;;4161497;28;20041;-66
2022/07/08 05:18:00;;;;;;;8.77;2.92;;;27.20;83.80;;;;;;4162318;28;20436;-64
2022/07/08 05:20:01;;;;;;;4.57;2.58;;;27.40;83.80;;;;;;4162823;28;20029;-67
2022/07/08 05:22:02;;;;;;;25.83;3.60;;;28.10;82.90;;;;;;4162613;28;20466;-67
2022/07/08 05:24:07;;;;;;;12.15;3.13;;;28.50;82.00;;;;;;4162652;28;20021;-68
2022/07/08 05:26:08;;;;;;;16.83;4.97;;;28.90;81.10;;;;;;4162427;28;20034;-64
2022/07/08 05:28:09;;;;;;;19.90;5.15;;;28.90;81.00;;;;;;4162694;28;20072;-67
2022/07/08 05:30:11;;;;;;;15.48;3.75;;;28.20;81.30;;;;;;4162567;28;20029;-66
2022/07/08 05:32:12;;;;;;;9.63;2.65;;;27.90;82.00;;;;;;4162442;28;20420;-68
2022/07/08 05:34:13;;;;;;;13.38;3.63;;;28.00;82.00;;;;;;4161280;28;20041;-66
2022/07/08 05:36:14;;;;;;;6.88;2.85;;;27.90;81.50;;;;;;4162436;28;20026;-69
2022/07/08 05:38:16;;;;;;;17.63;4.40;;;26.80;82.90;;;;;;4162870;28;20156;-68
2022/07/08 05:40:17;;;;;;;11.20;3.55;;;26.40;83.90;;;;;;4161914;28;20409;-67
2022/07/08 05:42:19;;;;;;;15.55;3.45;;;26.90;84.10;;;;;;4162640;28;20037;-68
2022/07/08 05:44:20;;;;;;;8.55;2.88;;;26.40;84.10;;;;;;4161668;28;20041;-66
2022/07/08 05:46:21;;;;;;;7.18;3.00;;;25.90;85.00;;;;;;4162529;28;20060;-65
2022/07/08 05:48:22;;;;;;;5.78;2.42;;;25.60;85.40;;;;;;4161662;28;20025;-67
2022/07/08 05:50:23;;;;;;;7.75;2.40;;;25.50;85.90;;;;;;4162038;28;20127;-64
2022/07/08 05:52:25;;;;;;;13.52;3.47;;;25.60;86.20;;;;;;4161573;28;20038;-66
2022/07/08 05:54:27;;;;;;;6.70;2.20;;;25.90;85.90;;;;;;4162264;28;20103;-65
2022/07/08 05:56:28;;;;;;;7.65;2.63;;;25.60;85.80;;;;;;4161317;28;20053;-68
2022/07/08 05:58:29;;;;;;;8.93;2.15;;;26.70;85.20;;;;;;4162331;28;20037;-66
2022/07/08 06:00:30;;;;;;;6.85;2.40;;;27.10;84.10;;;;;;4162056;28;20107;-66
2022/07/08 06:02:31;;;;;;;7.68;3.08;;;27.00;83.70;;;;;;4161728;28;20037;-65
2022/07/08 06:04:32;;;;;;;11.23;2.50;;;26.40;84.80;;;;;;4162040;28;20413;-68
2022/07/08 06:06:33;;;;;;;10.88;2.80;;;26.30;85.20;;;;;;4161983;28;20049;-66
2022/07/08 06:08:34;;;;;;;5.90;2.55;;;25.90;85.90;;;;;;4162555;28;20037;-65
2022/07/08 06:10:36;;;;;;;7.20;3.05;;;25.90;86.30;;;;;;4161280;28;20017;-64
2022/07/08 06:12:37;;;;;;;9.32;2.55;;;25.70;86.50;;;;;;4162425;28;20041;-65
2022/07/08 06:14:38;;;;;;;8.55;2.33;;;25.90;86.80;;;;;;4161516;28;20033;-67
2022/07/08 06:16:39;;;;;;;9.77;3.20;;;25.50;87.30;;;;;;4162071;28;20075;-68
2022/07/08 06:18:41;;;;;;;11.90;2.50;;;25.40;88.00;;;;;;4161489;28;20440;-65
2022/07/08 06:20:42;;;;;;;7.60;2.63;;;24.80;88.80;;;;;;4161943;28;20078;-69
2022/07/08 06:22:43;;;;;;;7.03;2.80;;;25.10;89.20;;;;;;4161312;28;20049;-64
2022/07/08 06:24:44;;;;;;;10.00;3.38;;;25.70;88.70;;;;;;4174018;28;20416;-64
2022/07/08 06:26:46;;;;;;;7.05;2.90;;;25.50;88.50;;;;;;4184413;28;20036;-65
2022/07/08 06:28:48;;;;;;;11.43;3.22;;;25.50;88.40;;;;;;4184086;28;20098;-65
2022/07/08 06:30:49;;;;;;;8.73;3.15;;;25.50;88.40;;;;;;4173983;28;20037;-66
2022/07/08 06:32:50;;;;;;;11.10;2.70;;;25.40;88.80;;;;;;4176448;28;20457;-66
2022/07/08 06:34:51;;;;;;;7.72;2.60;;;25.30;88.80;;;;;;4182694;28;20086;-65
2022/07/08 06:36:52;;;;;;;3.63;2.60;;;24.80;89.40;;;;;;4195102;28;20029;-68
2022/07/08 06:38:53;;;;;;;10.63;2.65;;;25.00;89.90;;;;;;4195104;28;20025;-65
2022/07/08 06:40:55;;;;;;;7.70;3.42;;;25.50;89.20;;;;;;4194271;28;20020;-66
2022/07/08 06:42:56;;;;;;;5.53;2.42;;;25.60;89.10;;;;;;4182732;28;20114;-66
2022/07/08 06:44:57;;;;;;;12.82;3.35;;;26.20;88.70;;;;;;4183872;28;20021;-66
2022/07/08 06:46:58;;;;;;;4.82;2.65;;;27.10;87.30;;;;;;4177743;28;20557;-65
2022/07/08 06:48:59;;;;;;;7.03;2.90;;;26.80;86.70;;;;;;4177719;28;20021;-63
2022/07/08 06:51:01;;;;;;;7.82;3.22;;;26.50;87.50;;;;;;4185972;28;20044;-63
2022/07/08 06:53:02;;;;;;;8.88;2.15;;;26.00;87.90;;;;;;4179005;28;20440;-66
2022/07/08 06:55:04;;;;;;;6.05;2.80;;;25.90;88.30;;;;;;4178208;28;20079;-67
2022/07/08 06:57:09;;;;;;;9.82;3.00;;;25.50;88.90;;;;;;4177779;28;20045;-69
2022/07/08 06:59:10;;;;;;;6.40;2.20;;;25.70;89.30;;;;;;4179265;28;20476;-72
2022/07/08 07:01:12;;;;;;;6.15;2.33;;;25.90;89.10;;;;;;4191798;28;20074;-68
2022/07/08 07:03:13;;;;;;;7.93;3.20;;;25.50;89.40;;;;;;4188231;28;20033;-66
2022/07/08 07:05:14;;;;;;;5.13;2.50;;;25.40;89.10;;;;;;4178164;28;20473;-67
2022/07/08 07:07:15;;;;;;;8.27;2.63;;;25.30;89.10;;;;;;4176926;28;20033;-68
2022/07/08 07:09:16;;;;;;;5.18;2.78;;;25.20;89.40;;;;;;4176670;28;20045;-66
2022/07/08 07:11:17;;;;;;;4.40;2.47;;;25.00;90.00;;;;;;4176828;28;20485;-68
2022/07/08 07:13:18;;;;;;;6.60;3.08;;;24.90;90.10;;;;;;4177488;28;20495;-67
2022/07/08 07:15:20;;;;;;;4.38;2.88;;;24.80;90.10;;;;;;4176667;28;20029;-68
2022/07/08 07:17:21;;;;;;;3.92;2.63;;;24.90;90.20;;;;;;4186291;28;20028;-66
2022/07/08 07:19:22;;;;;;;6.40;2.38;;;24.80;90.40;;;;;;4193594;28;20365;-66
2022/07/08 07:21:23;;;;;;;9.02;2.67;;;24.80;90.60;;;;;;4193201;28;20044;-67
2022/07/08 07:23:25;;;;;;;5.18;2.58;;;24.50;90.90;;;;;;4191542;28;20040;-66
2022/07/08 07:25:26;;;;;;;5.10;2.63;;;24.40;91.10;;;;;;4193747;28;20411;-71
2022/07/08 07:27:27;;;;;;;4.93;2.53;;;24.60;91.00;;;;;;4192140;28;20097;-69
2022/07/08 07:29:28;;;;;;;2.28;2.00;;;25.00;90.80;;;;;;4193804;28;20024;-69
2022/07/08 07:31:30;;;;;;;7.90;2.13;;;25.20;90.10;;;;;;4177370;28;20088;-71
2022/07/08 07:33:31;;;;;;;3.72;2.05;;;25.30;89.60;;;;;;4181424;28;20045;-71
2022/07/08 07:35:32;;;;;;;7.00;2.40;;;25.30;89.30;;;;;;4181531;28;20040;-69
2022/07/08 07:37:37;;;;;;;3.90;2.25;;;25.10;90.00;;;;;;4193264;28;20410;-65
2022/07/08 07:39:38;;;;;;;3.40;1.95;;;25.00;90.10;;;;;;4178338;28;20041;-67
2022/07/08 07:41:40;;;;;;;7.35;2.65;;;24.90;90.20;;;;;;4174340;28;21527;-67
2022/07/08 07:43:41;;;;;;;4.35;2.20;;;24.90;90.20;;;;;;4175699;28;20028;-66
2022/07/08 07:45:43;;;;;;;2.88;2.10;;;24.90;90.40;;;;;;4175654;28;20090;-65
2022/07/08 07:47:44;;;;;;;5.40;2.67;;;25.00;90.20;;;;;;4177086;28;20041;-72
2022/07/08 07:49:45;;;;;;;4.72;2.30;;;25.30;89.90;;;;;;4176046;28;20436;-66
2022/07/08 07:51:46;;;;;;;4.38;2.50;;;25.70;90.00;;;;;;4176947;28;20025;-66
2022/07/08 07:53:47;;;;;;;3.53;2.40;;;25.20;90.00;;;;;;4174961;28;20044;-66
2022/07/08 07:55:49;;;;;;;6.68;2.65;;;25.10;90.30;;;;;;4176026;28;20049;-66
2022/07/08 07:57:50;;;;;;;5.40;2.47;;;25.20;90.30;;;;;;4174993;28;20087;-65
2022/07/08 07:59:51;;;;;;;4.20;2.13;;;25.10;90.20;;;;;;4174221;28;20519;-65
2022/07/08 08:01:52;;;;;;;5.38;2.00;;;25.20;89.80;;;;;;4167050;28;20045;-65
2022/07/08 08:03:53;;;;;;;3.13;2.30;;;25.20;88.10;;;;;;4180982;28;20380;-66
2022/07/08 08:05:54;;;;;;;3.40;2.15;;;25.40;88.50;;;;;;4193182;28;20380;-64
2022/07/08 08:07:56;;;;;;;5.00;2.15;;;25.60;88.20;;;;;;4183010;28;20029;-65
2022/07/08 08:09:57;;;;;;;5.38;2.28;;;25.50;87.90;;;;;;4176491;28;20037;-69
2022/07/08 08:11:58;;;;;;;5.85;2.60;;;25.40;87.70;;;;;;4174829;28;20033;-67
2022/07/08 08:13:59;;;;;;;4.95;1.98;;;25.50;87.80;;;;;;4175264;28;20033;-65
2022/07/08 08:16:00;;;;;;;4.20;2.42;;;25.50;87.40;;;;;;4174916;28;20116;-70
2022/07/08 08:18:02;;;;;;;3.33;2.65;;;25.60;87.00;;;;;;4176462;28;20460;-65
2022/07/08 08:20:05;;;;;;;3.85;2.47;;;25.70;86.90;;;;;;4175867;28;20622;-65
2022/07/08 08:22:06;;;;;;;3.47;2.22;;;25.70;87.60;;;;;;4176346;28;20469;-64
2022/07/08 08:24:08;;;;;;;2.50;2.28;;;25.70;87.50;;;;;;4175331;28;20036;-64
2022/07/08 08:26:09;;;;;;;3.78;2.50;;;25.70;88.20;;;;;;4176509;28;20507;-65
2022/07/08 08:28:10;;;;;;;4.53;2.00;;;25.70;88.90;;;;;;4174930;28;20071;-68
2022/07/08 08:30:12;;;;;;;3.30;2.25;;;25.40;89.60;;;;;;4176039;28;20029;-65
2022/07/08 08:32:13;;;;;;;3.05;2.00;;;25.50;89.80;;;;;;4176388;28;20724;-65
2022/07/08 08:34:14;;;;;;;5.10;2.05;;;25.50;90.10;;;;;;4175949;28;20094;-65
2022/07/08 08:36:15;;;;;;;4.88;2.13;;;25.50;90.10;;;;;;4175898;28;20535;-66
2022/07/08 08:38:16;;;;;;;4.85;2.47;;;25.40;90.30;;;;;;4176501;28;20090;-66
2022/07/08 08:40:21;;;;;;;4.07;2.40;;;25.30;90.30;;;;;;4176383;28;20033;-67
2022/07/08 08:42:23;;;;;;;3.00;1.80;;;25.30;90.40;;;;;;4176063;28;20139;-66
2022/07/08 08:44:24;;;;;;;4.68;2.25;;;25.10;90.30;;;;;;4176525;28;20412;-66
2022/07/08 08:46:25;;;;;;;2.75;2.22;;;25.10;90.50;;;;;;4175943;28;20436;-66
2022/07/08 08:48:34;;;;;;;3.95;2.08;;;25.20;90.50;;;;;;4176716;28;20570;-66
2022/07/08 08:50:55;;;;;;;4.00;1.92;;;25.40;90.40;;;;;;4175751;28;20034;-66
2022/07/08 08:52:58;;;;;;;1.67;1.45;;;25.50;90.10;;;;;;4176665;28;20025;-65
2022/07/08 08:54:59;;;;;;;3.83;1.85;;;25.40;89.60;;;;;;4175411;28;20087;-65
2022/07/08 08:57:01;;;;;;;2.22;1.42;;;25.50;89.20;;;;;;4175115;28;20111;-66
2022/07/08 08:59:03;;;;;;;2.70;2.03;;;25.70;88.50;;;;;;4172508;28;20037;-65
2022/07/08 09:01:07;;;;;;;1.90;1.70;;;26.20;88.10;;;;;;4176028;28;20083;-66
2022/07/08 09:03:08;;;;;;;2.10;1.67;;;26.40;87.40;;;;;;4175042;28;20091;-65
2022/07/08 09:05:10;;;;;;;5.07;1.60;;;26.70;85.80;;;;;;4175764;28;20051;-65
2022/07/08 09:07:11;;;;;;;3.22;1.83;;;26.30;83.70;;;;;;4175389;28;20083;-66
2022/07/08 09:09:12;;;;;;;2.58;1.10;;;26.20;84.60;;;;;;4175734;28;20106;-66
2022/07/08 09:11:17;;;;;;;3.75;1.77;;;26.20;84.80;;;;;;4175260;28;20037;-66
2022/07/08 09:13:19;;;;;;;8.70;1.75;;;26.30;85.20;;;;;;4175508;28;20553;-68
2022/07/08 09:15:32;;;;;;;3.40;1.70;;;26.20;86.60;;;;;;4175818;28;20032;-67
2022/07/08 09:17:42;;;;;;;3.30;1.38;;;25.90;85.90;;;;;;4173993;28;20186;-69
2022/07/08 09:19:46;;;;;;;;;;;25.60;85.90;;;;;;4176425;28;20028;-71
2022/07/08 09:21:52;;;;;;;3.28;2.55;;;25.50;86.10;;;;;;4176016;28;20319;-69
2022/07/08 09:23:53;;;;;;;3.38;1.80;;;25.50;85.40;;;;;;4175688;28;20094;-69
2022/07/08 09:25:56;;;;;;;2.08;1.52;;;25.70;86.20;;;;;;4175232;28;20102;-70
2022/07/08 09:27:58;;;;;;;3.47;1.70;;;25.60;86.10;;;;;;4175887;28;20087;-73
2022/07/08 09:30:00;;;;;;;1.77;1.67;;;25.70;86.00;;;;;;4175261;28;20435;-71
2022/07/08 09:32:15;;;;;;;2.88;1.40;;;25.80;85.90;;;;;;4176390;28;20079;-68
2022/07/08 09:34:20;;;;;;;1.55;1.33;;;25.90;85.10;;;;;;4175698;28;20044;-71
2022/07/08 09:36:21;;;;;;;1.70;1.40;;;25.70;85.20;;;;;;4176201;28;20087;-70
2022/07/08 09:38:23;;;;;;;1.55;1.27;;;25.70;85.60;;;;;;4174609;28;20440;-66
2022/07/08 09:40:24;;;;;;;1.88;1.20;;;25.80;84.80;;;;;;4179283;28;20432;-65
2022/07/08 09:42:25;;;;;;;4.88;1.25;;;25.80;83.40;;;;;;4177971;28;20045;-70
2022/07/08 09:44:26;;;;;;;4.18;1.13;;;25.90;82.10;;;;;;4179398;28;20469;-66
2022/07/08 09:46:36;;;;;;;6.18;1.05;;;25.90;80.70;;;;;;4177915;28;20045;-70
2022/07/08 09:48:37;;;;;;;2.55;1.13;;;26.00;79.10;;;;;;4179007;28;20033;-69
2022/07/08 09:50:42;;;;;;;1.33;1.27;;;26.10;80.20;;;;;;4178318;28;20047;-67
2022/07/08 09:52:43;;;;;;;1.95;1.08;;;26.10;80.10;;;;;;4178979;28;20122;-68
2022/07/08 09:54:45;;;;;;;1.25;1.15;;;26.00;80.00;;;;;;4178436;28;20537;-68
2022/07/08 09:57:06;;;;;;;1.55;1.20;;;25.90;79.60;;;;;;4178706;28;20091;-66
2022/07/08 09:59:07;;;;;;;3.33;1.45;;;25.90;77.70;;;;;;4178465;28;20083;-68
2022/07/08 10:01:08;;;;;;;2.38;1.00;;;25.90;79.30;;;;;;4178277;28;20091;-70
2022/07/08 10:03:10;;;;;;;2.35;1.10;;;25.90;77.90;;;;;;4178210;28;20060;-67
2022/07/08 10:05:12;;;;;;;4.90;1.38;;;25.90;78.30;;;;;;4178335;28;20033;-67
2022/07/08 10:07:13;;;;;;;1.45;0.90;;;26.00;78.40;;;;;;4178441;28;20041;-67
2022/07/08 10:09:15;;;;;;;0.80;0.80;;;26.10;77.50;;;;;;4178755;28;20087;-67
2022/07/08 10:11:17;;;;;;;2.65;0.88;;;26.40;76.80;;;;;;4178316;28;20098;-71
2022/07/08 10:13:24;;;;;;;1.02;0.93;;;26.60;75.90;;;;;;4173857;28;20094;-66
2022/07/08 10:15:27;;;;;;;2.08;0.90;;;26.60;75.90;;;;;;4178491;28;20071;-66
2022/07/08 10:17:34;;;;;;;1.55;0.90;;;26.80;76.40;;;;;;4177899;28;20347;-68
2022/07/08 10:19:40;;;;;;;2.60;1.10;;;27.10;76.20;;;;;;4178001;28;20029;-65
2022/07/08 10:21:45;;;;;;;1.95;1.25;;;27.20;76.10;;;;;;4177947;28;20029;-71
2022/07/08 10:23:49;;;;;;;1.42;0.70;;;27.20;76.40;;;;;;4178490;28;20086;-66
2022/07/08 10:25:52;;;;;;;2.50;0.88;;;27.20;76.40;;;;;;4177981;28;20070;-69
2022/07/08 10:28:06;;;;;;;3.35;1.02;;;27.20;76.10;;;;;;4178615;28;20036;-70
2022/07/08 10:30:20;;;;;;;3.00;1.58;;;27.00;75.60;;;;;;4177784;28;20143;-69
2022/07/08 10:32:25;;;;;;;2.97;1.30;;;26.90;76.80;;;;;;4178321;28;20025;-64
2022/07/08 10:34:34;;;;;;;2.28;1.45;;;26.40;77.70;;;;;;4176596;28;20374;-69
2022/07/08 10:36:47;;;;;;;2.92;1.70;;;26.10;78.40;;;;;;4178752;28;20051;-66
2022/07/08 10:38:50;;;;;;;1.40;1.30;;;25.90;78.80;;;;;;4178435;28;20091;-70